Flight Track Log - Related Links

Times and Time Zones

All times are in EDT time to prevent confusion due to time zone crossing. See the UAL395 flight status page for this flight to view local times or setup timezone preferences in your user account.

Time Position Orientation Groundspeed Altitude Reporting Facility
EDT Latitude Longitude Course Direction KTS MPH feet Rate Location/Type
Sun 08:26:21 PM 41.9667 -87.9500 261° West 175 201 1,900  Level Chicago TRACON
Sun 08:27:21 PM 41.9333 -88.0167 236° Southwest 218 251 3,700 1,537 Climbing Chicago TRACON
Sun 08:28:22 PM 41.9333 -88.1167 270° West 257 296 5,000 1,224 Climbing Chicago TRACON
Sun 08:29:48 PM 41.9467 -88.2506 278° West 259 298 6,700 1,784 Climbing Chicago Center
Sun 08:30:50 PM 41.9572 -88.3478 278° West 271 312 9,400 1,951 Climbing Chicago Center
Sun 08:31:00 PM 41.8766 -88.8088 261° West  Level FlightAware Approximate
Sun 08:31:51 PM 41.9528 -88.4550 267° West 288 331 10,700  Level Chicago Center
Sun 08:32:53 PM 41.9514 -88.5825 269° West 332 382 11,900 1,452 Climbing Chicago Center
Sun 08:33:55 PM 41.9481 -88.7250 268° West 379 436 13,700 1,951 Climbing Chicago Center
Sun 08:34:56 PM 41.9186 -88.8944 257° West 390 449 15,900 2,000 Climbing Chicago Center
Sun 08:35:58 PM 41.8911 -89.0356 255° West 394 453 17,800 1,597 Climbing Chicago Center
Sun 08:37:00 PM 41.8617 -89.1792 255° West 400 460 19,200 1,268 Climbing Chicago Center
Sun 08:38:01 PM 41.8333 -89.3306 256° West 419 482 20,400 1,171 Climbing Chicago Center
Sun 08:39:03 PM 41.8069 -89.4872 257° West 432 497 21,600 1,161 Climbing Chicago Center
Sun 08:40:05 PM 41.7806 -89.6592 258° West 437 503 22,800 1,065 Climbing Chicago Center
Sun 08:41:07 PM 41.7544 -89.8192 258° West 441 507 23,800 968 Climbing Chicago Center
Sun 08:42:09 PM 41.7339 -89.9839 261° West 450 518 24,800 976 Climbing Chicago Center
Sun 08:43:10 PM 41.7200 -90.1519 264° West 454 522 25,800 1,268 Climbing Chicago Center
Sun 08:44:12 PM 41.7003 -90.3578 263° West 468 539 27,400 1,306 Climbing Chicago Center
Sun 08:45:14 PM 41.7000 -90.5206 270° West 444 511 28,500 1,113 Climbing Chicago Center
Sun 08:46:16 PM 41.6886 -90.6897 265° West 433 498 29,700 1,113 Climbing Chicago Center
Sun 08:47:18 PM 41.6733 -90.8497 263° West 435 501 30,800 1,024 Climbing Chicago Center
Sun 08:48:19 PM 41.6567 -91.0058 262° West 429 494 31,800 976 Climbing Chicago Center
Sun 08:49:21 PM 41.6403 -91.1603 262° West 423 487 32,800 774 Climbing Chicago Center
Sun 08:50:23 PM 41.6247 -91.3142 262° West 422 486 33,400 532 Climbing Chicago Center
Sun 08:51:25 PM 41.6092 -91.4697 262° West 425 489 33,900 293 Climbing Chicago Center
Sun 08:52:26 PM 41.5889 -91.6589 262° West 431 496 34,000 49 Climbing Chicago Center
Sun 08:53:28 PM 41.5708 -91.8178 261° West 435 501 34,000  Level Chicago Center
Sun 08:54:30 PM 41.5533 -91.9781 262° West 438 504 34,000  Level Chicago Center
Sun 08:55:32 PM 41.5361 -92.1389 262° West 440 506 34,000  Level Chicago Center
Sun 08:56:34 PM 41.5175 -92.3008 261° West 444 511 34,000  Level Chicago Center
Sun 08:57:35 PM 41.5000 -92.4619 262° West 443 510 34,000  Level Chicago Center
Sun 08:58:37 PM 41.4792 -92.6294 261° West 442 509 34,000  Level Chicago Center
Sun 08:59:31 PM 41.4608 -92.7897 261° West 441 507 34,000  Level Minneapolis Center
Sun 09:00:33 PM 41.4428 -92.9475 261° West 438 504 34,000 -387 Level Minneapolis Center
Sun 09:01:35 PM 41.4197 -93.1017 259° West 433 498 33,200 -838 Descending Minneapolis Center
Sun 09:02:49 PM 41.3819 -93.2836 255° West 429 494 32,100 -529 Descending Minneapolis Center
Sun 09:03:51 PM 41.3450 -93.4703 255° West 437 503 32,000 -49 Descending Minneapolis Center
Sun 09:04:52 PM 41.3156 -93.6217 256° West 432 497 32,000  Level Minneapolis Center
Sun 09:05:54 PM 41.2853 -93.7769 256° West 436 502 32,000  Level Minneapolis Center
Sun 09:06:56 PM 41.2522 -93.9361 255° West 446 513 32,000  Level Minneapolis Center
Sun 09:07:58 PM 41.2192 -94.0936 254° West 448 516 32,000  Level Minneapolis Center
Sun 09:08:59 PM 41.1894 -94.2358 255° West 447 514 32,000  Level Minneapolis Center
Sun 09:10:13 PM 41.1600 -94.4294 259° West 449 517 32,000  Level Minneapolis Center
Sun 09:11:16 PM 41.1306 -94.6575 260° West 448 516 32,000  Level Minneapolis Center
Sun 09:12:17 PM 41.1094 -94.8192 260° West 445 512 32,000  Level Minneapolis Center
Sun 09:13:19 PM 41.0881 -94.9817 260° West 446 513 32,000  Level Minneapolis Center
Sun 09:14:21 PM 41.0669 -95.1447 260° West 446 513 32,000  Level Minneapolis Center
Sun 09:15:23 PM 41.0522 -95.3092 263° West 448 516 32,000  Level Minneapolis Center
Sun 09:16:24 PM 41.0450 -95.4739 267° West 446 513 32,000  Level Minneapolis Center
Sun 09:17:26 PM 41.0386 -95.6378 267° West 445 512 32,000  Level Minneapolis Center
Sun 09:18:29 PM 41.0328 -95.8044 267° West 447 514 32,000  Level Minneapolis Center
Sun 09:19:31 PM 41.0258 -96.0058 267° West 450 518 32,000  Level Minneapolis Center
Sun 09:20:32 PM 40.9933 -96.1642 255° West 446 513 32,000  Level Minneapolis Center
Sun 09:21:34 PM 40.9572 -96.3214 253° West 445 512 32,000  Level Minneapolis Center
Sun 09:22:36 PM 40.9194 -96.4769 252° West 443 510 32,000  Level Minneapolis Center
Sun 09:23:38 PM 40.8814 -96.6325 252° West 443 510 32,000  Level Minneapolis Center
Sun 09:24:39 PM 40.8439 -96.7875 252° West 443 510 32,000  Level Minneapolis Center
Sun 09:25:41 PM 40.8056 -96.9439 252° West 446 513 32,000  Level Minneapolis Center
Sun 09:26:43 PM 40.7683 -97.0986 252° West 444 511 32,000  Level Minneapolis Center
Sun 09:27:45 PM 40.7292 -97.2531 252° West 444 511 32,000  Level Minneapolis Center
Sun 09:28:47 PM 40.6889 -97.4153 252° West 445 512 32,000  Level Minneapolis Center
Sun 09:29:48 PM 40.6417 -97.6022 252° West 446 513 32,000  Level Minneapolis Center
Sun 09:30:50 PM 40.6019 -97.7569 251° West 445 512 32,000  Level Minneapolis Center
Sun 09:31:52 PM 40.5631 -97.9106 252° West 443 510 32,000  Level Minneapolis Center
Sun 09:32:54 PM 40.5233 -98.0650 251° West 444 511 32,000  Level Minneapolis Center
Sun 09:33:56 PM 40.4839 -98.2192 251° West 444 511 32,000  Level Minneapolis Center
Sun 09:34:57 PM 40.4444 -98.3725 251° West 442 509 32,000  Level Minneapolis Center
Sun 09:35:59 PM 40.4042 -98.5256 251° West 442 509 32,000  Level Minneapolis Center
Sun 09:37:01 PM 40.3633 -98.6797 251° West 444 511 32,000  Level Minneapolis Center
Sun 09:38:02 PM 40.3225 -98.8336 251° West 445 512 32,000  Level Minneapolis Center
Sun 09:39:04 PM 40.2728 -99.0194 251° West 447 514 32,000  Level Minneapolis Center
Sun 09:40:06 PM 40.2314 -99.1750 251° West 449 517 32,000  Level Minneapolis Center
Sun 09:40:48 PM 40.2072 -99.2675 251° West 448 516 32,000  Level Denver Center
Sun 09:41:50 PM 40.1644 -99.4214 250° West 449 517 32,000  Level Denver Center
Sun 09:42:52 PM 40.1225 -99.5772 251° West 453 521 32,000  Level Denver Center
Sun 09:43:53 PM 40.0728 -99.7606 251° West 447 514 32,000  Level Denver Center
Sun 09:44:55 PM 40.0303 -99.9147 250° West 449 517 32,000  Level Denver Center
Sun 09:45:57 PM 39.9878 -100.0669 250° West 448 516 32,000  Level Denver Center
Sun 09:46:59 PM 39.9453 -100.2181 250° West 444 511 32,000  Level Denver Center
Sun 09:48:01 PM 39.8981 -100.3839 250° West 446 513 32,000  Level Denver Center
Sun 09:49:03 PM 39.8567 -100.5297 250° West 447 514 32,000  Level Denver Center
Sun 09:50:04 PM 39.8158 -100.6744 250° West 445 512 32,000  Level Denver Center
Sun 09:51:06 PM 39.7678 -100.8436 250° West 445 512 32,000  Level Denver Center
Sun 09:52:08 PM 39.7264 -100.9867 249° West 443 510 32,000  Level Denver Center
Sun 09:53:10 PM 39.6778 -101.1533 249° West 443 510 32,000  Level Denver Center
Sun 09:54:12 PM 39.6356 -101.2953 249° West 441 507 32,000  Level Denver Center
Sun 09:55:14 PM 39.5867 -101.4656 250° West 447 514 32,000  Level Denver Center
Sun 09:56:16 PM 39.5450 -101.6058 249° West 438 504 32,000  Level Denver Center
Sun 09:57:17 PM 39.4958 -101.7719 249° West 441 507 32,000  Level Denver Center
Sun 09:58:19 PM 39.4536 -101.9128 249° West 438 504 32,000  Level Denver Center
Sun 09:59:21 PM 39.4114 -102.0539 249° West 439 505 32,000  Level Denver Center
Sun 10:00:23 PM 39.3611 -102.2175 248° West 440 506 32,000  Level Denver Center
Sun 10:01:37 PM 39.3169 -102.3678 249° West 440 506 32,000  Level Denver Center
Sun 10:02:39 PM 39.2592 -102.5542 248° West 440 506 32,000  Level Denver Center
Sun 10:03:41 PM 39.2161 -102.6967 249° West 444 511 32,000  Level Denver Center
Sun 10:04:43 PM 39.1683 -102.8525 248° West 444 511 32,000  Level Denver Center
Sun 10:05:45 PM 39.1217 -103.0008 248° West 446 513 32,000  Level Denver Center
Sun 10:06:46 PM 39.0753 -103.1497 248° West 449 517 32,000  Level Denver Center
Sun 10:07:48 PM 39.0289 -103.2978 248° West 446 513 32,000  Level Denver Center
Sun 10:09:02 PM 38.9731 -103.4419 244° Southwest 449 517 32,000  Level Denver Center
Sun 10:10:04 PM 38.8794 -103.6350 238° Southwest 455 524 32,000  Level Denver Center
Sun 10:11:06 PM 38.8217 -103.7581 239° Southwest 452 520 32,000  Level Denver Center
Sun 10:12:08 PM 38.7492 -103.9103 239° Southwest 450 518 32,000  Level Denver Center
Sun 10:13:09 PM 38.6889 -104.0436 240° Southwest 454 522 32,000  Level Denver Center
Sun 10:14:11 PM 38.6389 -104.2011 248° West 459 528 32,000  Level Denver Center
Sun 10:15:13 PM 38.5914 -104.3503 248° West 454 522 32,000  Level Denver Center
Sun 10:16:15 PM 38.5428 -104.4994 247° West 454 522 32,000 146 Level Denver Center
Sun 10:17:16 PM 38.4947 -104.6497 248° West 456 525 32,300 889 Climbing Denver Center
Sun 10:18:30 PM 38.4403 -104.8214 248° West 439 505 34,000 750 Climbing Denver Center
Sun 10:19:32 PM 38.3839 -104.9956 248° West 441 507 34,000  Level Denver Center
Sun 10:20:34 PM 38.3339 -105.1456 247° West 446 513 34,000  Level Denver Center
Sun 10:21:36 PM 38.2900 -105.2839 248° West 442 509 34,000  Level Denver Center
Sun 10:22:37 PM 38.2386 -105.4392 247° West 431 496 34,000  Level Denver Center
Sun 10:23:39 PM 38.1942 -105.5731 247° West 430 495 34,000  Level Denver Center
Sun 10:24:41 PM 38.1422 -105.7286 247° West 427 491 34,000  Level Denver Center
Sun 10:25:43 PM 38.0981 -105.8597 247° West 425 489 34,000 -48 Level Denver Center
Sun 10:26:45 PM 38.0461 -106.0136 247° West 425 489 33,900 -49 Descending Denver Center
Sun 10:27:46 PM 38.0014 -106.1450 247° West 426 490 33,900 49 Level Denver Center
Sun 10:28:48 PM 37.9564 -106.2783 247° West 430 495 34,000 48 Climbing Denver Center
Sun 10:29:50 PM 37.9036 -106.4347 247° West 433 498 34,000  Level Denver Center
Sun 10:30:52 PM 37.8572 -106.5708 247° West 434 499 34,000  Level Denver Center
Sun 10:31:53 PM 37.8081 -106.7133 246° West 437 503 34,000  Level Denver Center
Sun 10:32:55 PM 37.7528 -106.8686 246° West 434 499 34,000  Level Denver Center
Sun 10:33:57 PM 37.7075 -107.0028 247° West 434 499 34,000 -48 Level Denver Center
Sun 10:34:59 PM 37.6536 -107.1561 246° West 430 495 33,900  Descending Denver Center
Sun 10:36:00 PM 37.6064 -107.2878 246° West 431 496 34,000 49 Climbing Denver Center
Sun 10:37:02 PM 37.5533 -107.4422 247° West 431 496 34,000  Level Denver Center
Sun 10:38:04 PM 37.5058 -107.5719 245° Southwest 428 493 34,000  Level Denver Center
Sun 10:39:06 PM 37.4600 -107.7022 246° West 426 490 34,000  Level Denver Center
Sun 10:40:07 PM 37.4067 -107.8539 246° West 426 490 34,000  Level Denver Center
Sun 10:41:09 PM 37.3597 -107.9825 245° Southwest 424 488 34,000  Level Denver Center
Sun 10:42:11 PM 37.3056 -108.1347 246° West 426 490 34,000  Level Denver Center
Sun 10:43:13 PM 37.2589 -108.2628 245° Southwest 425 489 34,000  Level Denver Center
Sun 10:44:14 PM 37.2039 -108.4136 245° Southwest 425 489 34,000  Level Denver Center
Sun 10:45:16 PM 37.1569 -108.5422 245° Southwest 425 489 34,000  Level Denver Center
Sun 10:46:18 PM 37.1025 -108.6911 245° Southwest 422 486 34,000  Level Denver Center
Sun 10:47:20 PM 37.0542 -108.8186 245° Southwest 424 488 34,000  Level Denver Center
Sun 10:48:21 PM 37.0075 -108.9464 245° Southwest 424 488 34,000  Level Denver Center
Sun 10:49:23 PM 36.9544 -109.0911 245° Southwest 416 479 34,000  Level Denver Center
Sun 10:50:25 PM 36.9067 -109.2183 245° Southwest 419 482 34,000  Level Denver Center
Sun 10:51:27 PM 36.8511 -109.3653 245° Southwest 421 484 34,000  Level Denver Center
Sun 10:52:28 PM 36.8036 -109.4914 245° Southwest 420 483 34,000  Level Denver Center
Sun 10:53:30 PM 36.7472 -109.6403 245° Southwest 424 488 34,000  Level Denver Center
Sun 10:54:32 PM 36.6992 -109.7644 244° Southwest 420 483 34,000  Level Denver Center
Sun 10:55:33 PM 36.6433 -109.9097 244° Southwest 417 480 34,000  Level Denver Center
Sun 10:56:35 PM 36.5950 -110.0344 244° Southwest 419 482 34,000  Level Denver Center
Sun 10:57:37 PM 36.5439 -110.1675 244° Southwest 415 478 34,000  Level Denver Center
Sun 10:58:39 PM 36.4936 -110.2986 245° Southwest 420 483 34,000  Level Denver Center
Sun 10:59:53 PM 36.4325 -110.4550 244° Southwest 420 483 34,000  Level Denver Center
Sun 11:00:54 PM 36.3819 -110.5856 244° Southwest 419 482 34,000  Level Denver Center
Sun 11:01:56 PM 36.3211 -110.7403 244° Southwest 416 479 34,000  Level Denver Center
Sun 11:02:58 PM 36.2711 -110.8683 244° Southwest 415 478 34,000  Level Denver Center
Sun 11:03:59 PM 36.2189 -110.9983 244° Southwest 418 481 34,000  Level Denver Center
Sun 11:05:01 PM 36.1678 -111.1286 244° Southwest 420 483 34,000  Level Denver Center
Sun 11:06:03 PM 36.1153 -111.2572 243° Southwest 419 482 34,000  Level Denver Center
Sun 11:07:04 PM 36.0639 -111.3894 244° Southwest 424 488 34,000  Level Denver Center
Sun 11:08:06 PM 36.0100 -111.5206 243° Southwest 427 491 34,000  Level Denver Center
Sun 11:09:08 PM 35.9578 -111.6519 244° Southwest 427 491 34,000  Level Denver Center
Sun 11:10:14 PM 35.8911 -111.8131 243° Southwest 422 486 34,000  Level Los Angeles Center
Sun 11:11:28 PM 35.8386 -111.9425 243° Southwest 426 490 34,000  Level Los Angeles Center
Sun 11:12:30 PM 35.7753 -112.0989 244° Southwest 428 493 34,000  Level Los Angeles Center
Sun 11:13:32 PM 35.7217 -112.2286 243° Southwest 426 490 34,000  Level Los Angeles Center
Sun 11:14:33 PM 35.6678 -112.3581 243° Southwest 428 493 34,000  Level Los Angeles Center
Sun 11:15:35 PM 35.6142 -112.4892 243° Southwest 431 496 34,000  Level Los Angeles Center
Sun 11:16:37 PM 35.5500 -112.6444 243° Southwest 428 493 34,000  Level Los Angeles Center
Sun 11:17:39 PM 35.4961 -112.7722 243° Southwest 423 487 34,000  Level Los Angeles Center
Sun 11:18:41 PM 35.4422 -112.9058 244° Southwest 433 498 34,000  Level Los Angeles Center
Sun 11:19:42 PM 35.3800 -113.0486 242° Southwest 430 495 34,000  Level Los Angeles Center
Sun 11:20:44 PM 35.3258 -113.1750 242° Southwest 420 483 34,000  Level Los Angeles Center
Sun 11:21:46 PM 35.2731 -113.3006 243° Southwest 422 486 34,000  Level Los Angeles Center
Sun 11:22:48 PM 35.2178 -113.4322 243° Southwest 432 497 34,000  Level Los Angeles Center
Sun 11:23:49 PM 35.1633 -113.5589 242° Southwest 425 489 34,000  Level Los Angeles Center
Sun 11:24:51 PM 35.1206 -113.6608 243° Southwest 423 487 34,000 -97 Level Los Angeles Center
Sun 11:25:53 PM 35.0431 -113.8408 242° Southwest 430 495 33,800 -581 Descending Los Angeles Center
Sun 11:26:55 PM 34.9636 -113.9606 231° Southwest 429 494 32,800 -968 Descending Los Angeles Center
Sun 11:27:57 PM 34.8831 -114.0744 229° Southwest 441 507 31,800 -976 Descending Los Angeles Center
Sun 11:28:58 PM 34.8039 -114.1844 229° Southwest 432 497 30,800 -878 Descending Los Angeles Center
Sun 11:30:00 PM 34.7233 -114.2978 229° Southwest 438 504 30,000 -435 Descending Los Angeles Center
Sun 11:31:02 PM 34.6381 -114.4161 229° Southwest 441 507 29,900 -48 Descending Los Angeles Center
Sun 11:32:04 PM 34.5581 -114.5269 229° Southwest 436 502 29,900 -242 Level Los Angeles Center
Sun 11:33:06 PM 34.4778 -114.6369 228° Southwest 436 502 29,400 -732 Descending Los Angeles Center
Sun 11:34:07 PM 34.3975 -114.7469 229° Southwest 437 503 28,400 -976 Descending Los Angeles Center
Sun 11:35:09 PM 34.3164 -114.8597 229° Southwest 442 509 27,400 -1,065 Descending Los Angeles Center
Sun 11:36:11 PM 34.2172 -114.9936 228° Southwest 445 512 26,200 -1,073 Descending Los Angeles Center
Sun 11:37:12 PM 34.1339 -115.1075 229° Southwest 451 519 25,200 -976 Descending Los Angeles Center
Sun 11:38:14 PM 34.0494 -115.2244 229° Southwest 461 531 24,200 -629 Descending Los Angeles Center
Sun 11:39:16 PM 33.9653 -115.3394 229° Southwest 457 526 23,900 -145 Descending Los Angeles Center
Sun 11:40:18 PM 33.8806 -115.4547 229° Southwest 461 531 23,900  Level Los Angeles Center
Sun 11:41:19 PM 33.7961 -115.5681 228° Southwest 457 526 23,900 -390 Level Los Angeles Center
Sun 11:42:21 PM 33.7128 -115.6814 229° Southwest 455 524 23,100 -1,122 Descending Los Angeles Center
Sun 11:43:22 PM 33.6286 -115.7931 228° Southwest 454 522 21,600 -1,378 Descending Los Angeles Center
Sun 11:44:36 PM 33.5297 -115.9250 228° Southwest 444 511 20,000 -1,191 Descending Los Angeles Center
Sun 11:45:38 PM 33.4328 -116.0500 227° Southwest 431 496 18,900 -1,694 Descending Los Angeles Center
Sun 11:46:40 PM 33.3381 -116.1367 217° Southwest 431 496 16,500 -2,081 Descending Los Angeles Center
Sun 11:47:42 PM 33.2472 -116.2214 218° Southwest 420 483 14,600 -1,854 Descending Los Angeles Center
Sun 11:48:43 PM 33.1583 -116.3025 217° Southwest 407 468 12,700 -1,317 Descending Los Angeles Center
Sun 11:49:45 PM 33.0592 -116.3944 218° Southwest 384 442 11,900 -339 Descending Los Angeles Center
Sun 11:50:47 PM 32.9964 -116.4500 217° Southwest 333 383 12,000 -488 Climbing Los Angeles Center
Sun 11:51:48 PM 32.9156 -116.4950 205° Southwest 321 369 10,900 -927 Descending Los Angeles Center
Sun 11:52:50 PM 32.8378 -116.5478 210° Southwest 309 356 10,100 -1,016 Descending Los Angeles Center
Sun 11:53:52 PM 32.7983 -116.6272 239° Southwest 281 323 8,800 -1,463 Descending Los Angeles Center
Sun 11:54:53 PM 32.7533 -116.7206 240° Southwest 274 315 7,100 -1,268 Descending Los Angeles Center
Sun 11:55:55 PM 32.7172 -116.7961 240° Southwest 267 307 6,200 -912 Descending Los Angeles Center
Sun 11:56:58 PM 32.6833 -116.8833 245° Southwest 262 302 5,200 -1,171 Descending Southern California TRACON
Sun 11:57:58 PM 32.6833 -116.9500 270° West 237 273 3,800 -1,150 Descending Southern California TRACON
Sun 11:58:58 PM 32.7000 -117.0167 287° West 198 228 2,900 -900 Descending Southern California TRACON

Login

Don't have an account? Register now (free) for customized features, flight alerts, and more!